Terminal Aerodrome Forecast
Issued by NWS Northern Indiana

Home | Current Version | Previous Version | Text Only | Print | Product List | Glossary On
Versions: 1 2 3 4 5 6 7 8 9 10 11 12
000
FTUS43 KIWX 232331
TAFFWA
TAF
KFWA 232331Z 2400/2424 25018KT P6SM -RA OVC015
      TEMPO 2400/2402 OVC008
     FM240200 26015KT P6SM VCSH OVC035
     FM240800 23009KT 4SM -RA OVC015
     FM241600 23012G21KT P6SM -RA OVC015=

USA.gov is the U.S. government's official web portal to all federal, state and local government web resources and services.